sensor_id;sensor_type;location;lat;lon;timestamp;P1;durP1;ratioP1;P2;durP2;ratioP2
53642;SDS011;39546;45.534;12.048;2022-11-18T00:02:43;14.15;;;9.73;;
53642;SDS011;39546;45.534;12.048;2022-11-18T00:08:45;14.57;;;10.20;;
53642;SDS011;39546;45.534;12.048;2022-11-18T00:14:48;12.90;;;8.10;;
53642;SDS011;39546;45.534;12.048;2022-11-18T00:20:50;12.10;;;8.65;;
53642;SDS011;39546;45.534;12.048;2022-11-18T00:26:53;16.02;;;12.13;;
53642;SDS011;39546;45.534;12.048;2022-11-18T00:32:56;14.75;;;10.13;;
53642;SDS011;39546;45.534;12.048;2022-11-18T00:38:58;16.37;;;10.75;;
53642;SDS011;39546;45.534;12.048;2022-11-18T00:45:00;18.73;;;12.13;;
53642;SDS011;39546;45.534;12.048;2022-11-18T00:51:11;19.25;;;12.10;;
53642;SDS011;39546;45.534;12.048;2022-11-18T00:57:18;17.77;;;14.25;;
53642;SDS011;39546;45.534;12.048;2022-11-18T01:03:20;18.62;;;13.35;;
53642;SDS011;39546;45.534;12.048;2022-11-18T01:09:23;23.62;;;17.52;;
53642;SDS011;39546;45.534;12.048;2022-11-18T01:15:26;27.92;;;20.17;;
53642;SDS011;39546;45.534;12.048;2022-11-18T01:21:28;21.25;;;15.40;;
53642;SDS011;39546;45.534;12.048;2022-11-18T01:27:30;23.55;;;16.48;;
53642;SDS011;39546;45.534;12.048;2022-11-18T01:33:32;19.20;;;13.48;;
53642;SDS011;39546;45.534;12.048;2022-11-18T01:39:35;18.37;;;11.85;;
53642;SDS011;39546;45.534;12.048;2022-11-18T01:45:38;16.77;;;11.93;;
53642;SDS011;39546;45.534;12.048;2022-11-18T01:51:48;15.10;;;11.07;;
53642;SDS011;39546;45.534;12.048;2022-11-18T01:58:00;25.40;;;17.27;;
53642;SDS011;39546;45.534;12.048;2022-11-18T02:04:24;11.85;;;7.25;;
53642;SDS011;39546;45.534;12.048;2022-11-18T02:10:27;16.08;;;10.68;;
53642;SDS011;39546;45.534;12.048;2022-11-18T02:16:36;15.57;;;10.50;;
53642;SDS011;39546;45.534;12.048;2022-11-18T02:29:23;17.62;;;12.40;;
53642;SDS011;39546;45.534;12.048;2022-11-18T02:35:42;12.27;;;9.50;;
53642;SDS011;39546;45.534;12.048;2022-11-18T02:41:48;13.68;;;8.68;;
53642;SDS011;39546;45.534;12.048;2022-11-18T02:47:51;12.77;;;7.78;;
53642;SDS011;39546;45.534;12.048;2022-11-18T02:54:05;15.88;;;12.07;;
53642;SDS011;39546;45.534;12.048;2022-11-18T03:00:09;15.68;;;11.55;;
53642;SDS011;39546;45.534;12.048;2022-11-18T03:12:43;14.43;;;9.38;;
53642;SDS011;39546;45.534;12.048;2022-11-18T03:19:09;12.88;;;9.13;;
53642;SDS011;39546;45.534;12.048;2022-11-18T03:25:22;10.98;;;7.55;;
53642;SDS011;39546;45.534;12.048;2022-11-18T03:37:41;10.57;;;7.07;;
53642;SDS011;39546;45.534;12.048;2022-11-18T03:43:49;11.20;;;7.18;;
53642;SDS011;39546;45.534;12.048;2022-11-18T03:49:59;13.00;;;6.65;;
53642;SDS011;39546;45.534;12.048;2022-11-18T03:56:09;13.00;;;9.50;;
53642;SDS011;39546;45.534;12.048;2022-11-18T04:02:22;12.85;;;8.60;;
53642;SDS011;39546;45.534;12.048;2022-11-18T04:08:28;9.82;;;6.05;;
53642;SDS011;39546;45.534;12.048;2022-11-18T04:14:37;11.23;;;7.22;;
53642;SDS011;39546;45.534;12.048;2022-11-18T04:20:41;13.43;;;9.00;;
53642;SDS011;39546;45.534;12.048;2022-11-18T04:26:43;11.23;;;7.93;;
53642;SDS011;39546;45.534;12.048;2022-11-18T04:32:45;19.60;;;10.93;;
53642;SDS011;39546;45.534;12.048;2022-11-18T04:38:47;11.38;;;8.32;;
53642;SDS011;39546;45.534;12.048;2022-11-18T04:44:50;11.52;;;8.43;;
53642;SDS011;39546;45.534;12.048;2022-11-18T04:50:55;11.18;;;7.57;;
53642;SDS011;39546;45.534;12.048;2022-11-18T04:56:57;8.82;;;5.82;;
53642;SDS011;39546;45.534;12.048;2022-11-18T05:02:59;8.65;;;5.55;;
53642;SDS011;39546;45.534;12.048;2022-11-18T05:09:01;15.52;;;10.52;;
53642;SDS011;39546;45.534;12.048;2022-11-18T05:15:04;11.65;;;7.80;;
53642;SDS011;39546;45.534;12.048;2022-11-18T05:21:07;11.38;;;6.70;;
53642;SDS011;39546;45.534;12.048;2022-11-18T05:27:09;11.88;;;7.10;;
53642;SDS011;39546;45.534;12.048;2022-11-18T05:33:12;10.50;;;6.15;;
53642;SDS011;39546;45.534;12.048;2022-11-18T05:39:14;11.57;;;6.25;;
53642;SDS011;39546;45.534;12.048;2022-11-18T05:45:16;13.25;;;9.13;;
53642;SDS011;39546;45.534;12.048;2022-11-18T05:51:19;10.15;;;6.85;;
53642;SDS011;39546;45.534;12.048;2022-11-18T05:57:21;11.70;;;8.80;;
53642;SDS011;39546;45.534;12.048;2022-11-18T06:03:25;10.40;;;7.90;;
53642;SDS011;39546;45.534;12.048;2022-11-18T06:09:31;10.38;;;8.20;;
53642;SDS011;39546;45.534;12.048;2022-11-18T06:15:39;12.67;;;9.53;;
53642;SDS011;39546;45.534;12.048;2022-11-18T06:21:43;12.40;;;8.38;;
53642;SDS011;39546;45.534;12.048;2022-11-18T06:27:46;14.00;;;9.70;;
53642;SDS011;39546;45.534;12.048;2022-11-18T06:33:53;11.00;;;6.70;;
53642;SDS011;39546;45.534;12.048;2022-11-18T06:39:55;14.65;;;8.13;;
53642;SDS011;39546;45.534;12.048;2022-11-18T06:45:58;11.68;;;7.18;;
53642;SDS011;39546;45.534;12.048;2022-11-18T06:52:20;15.35;;;10.02;;
53642;SDS011;39546;45.534;12.048;2022-11-18T06:58:24;23.12;;;11.63;;
53642;SDS011;39546;45.534;12.048;2022-11-18T07:04:26;15.30;;;8.68;;
53642;SDS011;39546;45.534;12.048;2022-11-18T07:10:29;14.57;;;10.35;;
53642;SDS011;39546;45.534;12.048;2022-11-18T07:16:32;11.95;;;6.55;;
53642;SDS011;39546;45.534;12.048;2022-11-18T07:22:35;21.30;;;16.10;;
53642;SDS011;39546;45.534;12.048;2022-11-18T07:28:38;15.13;;;9.90;;
53642;SDS011;39546;45.534;12.048;2022-11-18T07:34:40;17.60;;;13.93;;
53642;SDS011;39546;45.534;12.048;2022-11-18T07:40:43;16.08;;;10.82;;
53642;SDS011;39546;45.534;12.048;2022-11-18T07:46:45;23.52;;;16.30;;
53642;SDS011;39546;45.534;12.048;2022-11-18T07:52:47;21.90;;;15.48;;
53642;SDS011;39546;45.534;12.048;2022-11-18T07:58:53;22.75;;;14.30;;
53642;SDS011;39546;45.534;12.048;2022-11-18T08:04:56;15.57;;;10.20;;
53642;SDS011;39546;45.534;12.048;2022-11-18T08:10:59;16.92;;;11.90;;
53642;SDS011;39546;45.534;12.048;2022-11-18T08:17:03;14.77;;;10.73;;
53642;SDS011;39546;45.534;12.048;2022-11-18T08:23:05;22.70;;;14.75;;
53642;SDS011;39546;45.534;12.048;2022-11-18T08:29:07;15.07;;;10.93;;
53642;SDS011;39546;45.534;12.048;2022-11-18T08:35:09;18.70;;;10.60;;
53642;SDS011;39546;45.534;12.048;2022-11-18T08:41:16;28.70;;;23.05;;
53642;SDS011;39546;45.534;12.048;2022-11-18T08:47:21;13.60;;;9.88;;
53642;SDS011;39546;45.534;12.048;2022-11-18T08:53:24;14.75;;;10.38;;
53642;SDS011;39546;45.534;12.048;2022-11-18T08:59:26;27.85;;;22.30;;
53642;SDS011;39546;45.534;12.048;2022-11-18T09:05:28;26.90;;;19.85;;
53642;SDS011;39546;45.534;12.048;2022-11-18T09:11:30;38.30;;;26.65;;
53642;SDS011;39546;45.534;12.048;2022-11-18T09:17:33;44.17;;;27.77;;
53642;SDS011;39546;45.534;12.048;2022-11-18T09:23:36;45.83;;;33.60;;
53642;SDS011;39546;45.534;12.048;2022-11-18T09:29:39;42.22;;;30.70;;
53642;SDS011;39546;45.534;12.048;2022-11-18T09:35:41;48.00;;;31.35;;
53642;SDS011;39546;45.534;12.048;2022-11-18T09:41:47;37.05;;;29.30;;
53642;SDS011;39546;45.534;12.048;2022-11-18T09:48:19;54.40;;;36.72;;
53642;SDS011;39546;45.534;12.048;2022-11-18T09:54:46;41.25;;;26.90;;
53642;SDS011;39546;45.534;12.048;2022-11-18T10:00:48;45.88;;;34.67;;
53642;SDS011;39546;45.534;12.048;2022-11-18T10:06:50;42.47;;;33.45;;
53642;SDS011;39546;45.534;12.048;2022-11-18T10:12:57;40.92;;;28.23;;
53642;SDS011;39546;45.534;12.048;2022-11-18T10:25:31;48.95;;;35.50;;
53642;SDS011;39546;45.534;12.048;2022-11-18T10:38:38;34.35;;;27.37;;
53642;SDS011;39546;45.534;12.048;2022-11-18T10:44:28;53.97;;;35.90;;
53642;SDS011;39546;45.534;12.048;2022-11-18T10:50:37;25.60;;;20.20;;
53642;SDS011;39546;45.534;12.048;2022-11-18T10:56:49;29.33;;;21.50;;
53642;SDS011;39546;45.534;12.048;2022-11-18T11:02:54;34.90;;;28.00;;
53642;SDS011;39546;45.534;12.048;2022-11-18T11:08:58;38.90;;;30.67;;
53642;SDS011;39546;45.534;12.048;2022-11-18T11:15:03;41.08;;;31.50;;
53642;SDS011;39546;45.534;12.048;2022-11-18T11:21:14;39.95;;;31.92;;
53642;SDS011;39546;45.534;12.048;2022-11-18T11:58:51;41.78;;;33.53;;
53642;SDS011;39546;45.534;12.048;2022-11-18T12:24:27;35.00;;;29.73;;
53642;SDS011;39546;45.534;12.048;2022-11-18T12:30:32;29.67;;;25.58;;
53642;SDS011;39546;45.534;12.048;2022-11-18T12:36:37;32.08;;;21.33;;
53642;SDS011;39546;45.534;12.048;2022-11-18T12:42:42;40.10;;;31.05;;
53642;SDS011;39546;45.534;12.048;2022-11-18T12:55:25;25.45;;;19.20;;
53642;SDS011;39546;45.534;12.048;2022-11-18T13:01:32;29.37;;;22.05;;
53642;SDS011;39546;45.534;12.048;2022-11-18T13:07:42;34.50;;;22.08;;
53642;SDS011;39546;45.534;12.048;2022-11-18T13:14:19;37.15;;;27.13;;
53642;SDS011;39546;45.534;12.048;2022-11-18T13:20:58;40.53;;;23.90;;
53642;SDS011;39546;45.534;12.048;2022-11-18T13:33:49;43.92;;;31.10;;
53642;SDS011;39546;45.534;12.048;2022-11-18T13:39:52;35.72;;;26.40;;
53642;SDS011;39546;45.534;12.048;2022-11-18T13:45:57;22.87;;;19.90;;
53642;SDS011;39546;45.534;12.048;2022-11-18T13:52:17;30.70;;;23.87;;
53642;SDS011;39546;45.534;12.048;2022-11-18T14:04:56;25.98;;;21.83;;
53642;SDS011;39546;45.534;12.048;2022-11-18T14:11:08;28.12;;;20.50;;
53642;SDS011;39546;45.534;12.048;2022-11-18T14:17:19;31.37;;;21.45;;
53642;SDS011;39546;45.534;12.048;2022-11-18T14:23:26;30.48;;;22.55;;
53642;SDS011;39546;45.534;12.048;2022-11-18T14:29:35;27.92;;;17.62;;
53642;SDS011;39546;45.534;12.048;2022-11-18T14:35:38;26.98;;;17.80;;
53642;SDS011;39546;45.534;12.048;2022-11-18T14:41:40;25.42;;;19.85;;
53642;SDS011;39546;45.534;12.048;2022-11-18T14:47:48;27.02;;;17.98;;
53642;SDS011;39546;45.534;12.048;2022-11-18T14:53:50;26.98;;;15.68;;
53642;SDS011;39546;45.534;12.048;2022-11-18T14:59:53;18.65;;;13.57;;
53642;SDS011;39546;45.534;12.048;2022-11-18T15:05:55;20.00;;;14.40;;
53642;SDS011;39546;45.534;12.048;2022-11-18T15:11:57;16.83;;;14.30;;
53642;SDS011;39546;45.534;12.048;2022-11-18T15:17:59;15.98;;;12.52;;
53642;SDS011;39546;45.534;12.048;2022-11-18T15:24:02;14.75;;;11.38;;
53642;SDS011;39546;45.534;12.048;2022-11-18T15:30:04;13.98;;;10.63;;
53642;SDS011;39546;45.534;12.048;2022-11-18T15:36:11;16.17;;;10.07;;
53642;SDS011;39546;45.534;12.048;2022-11-18T15:48:18;17.55;;;12.30;;
53642;SDS011;39546;45.534;12.048;2022-11-18T15:54:20;18.92;;;14.00;;
53642;SDS011;39546;45.534;12.048;2022-11-18T16:00:22;17.10;;;13.82;;
53642;SDS011;39546;45.534;12.048;2022-11-18T16:06:25;22.35;;;14.25;;
53642;SDS011;39546;45.534;12.048;2022-11-18T16:12:29;18.42;;;15.05;;
53642;SDS011;39546;45.534;12.048;2022-11-18T16:18:53;20.15;;;14.02;;
53642;SDS011;39546;45.534;12.048;2022-11-18T16:24:59;15.13;;;12.70;;
53642;SDS011;39546;45.534;12.048;2022-11-18T16:31:01;16.55;;;14.02;;
53642;SDS011;39546;45.534;12.048;2022-11-18T16:37:24;21.87;;;17.42;;
53642;SDS011;39546;45.534;12.048;2022-11-18T16:43:27;24.35;;;13.30;;
53642;SDS011;39546;45.534;12.048;2022-11-18T16:49:33;22.55;;;17.83;;
53642;SDS011;39546;45.534;12.048;2022-11-18T16:55:35;20.15;;;14.98;;
53642;SDS011;39546;45.534;12.048;2022-11-18T17:01:40;26.90;;;21.02;;
53642;SDS011;39546;45.534;12.048;2022-11-18T17:07:42;21.92;;;16.45;;
53642;SDS011;39546;45.534;12.048;2022-11-18T17:13:44;24.58;;;18.55;;
53642;SDS011;39546;45.534;12.048;2022-11-18T17:19:47;22.40;;;18.83;;
53642;SDS011;39546;45.534;12.048;2022-11-18T17:25:49;30.58;;;20.73;;
53642;SDS011;39546;45.534;12.048;2022-11-18T17:31:51;33.72;;;27.02;;
53642;SDS011;39546;45.534;12.048;2022-11-18T17:37:54;25.50;;;19.27;;
53642;SDS011;39546;45.534;12.048;2022-11-18T17:43:59;25.10;;;17.70;;
53642;SDS011;39546;45.534;12.048;2022-11-18T17:50:02;20.62;;;18.10;;
53642;SDS011;39546;45.534;12.048;2022-11-18T17:56:07;21.25;;;19.00;;
53642;SDS011;39546;45.534;12.048;2022-11-18T18:02:10;25.90;;;17.30;;
53642;SDS011;39546;45.534;12.048;2022-11-18T18:08:12;23.98;;;20.00;;
53642;SDS011;39546;45.534;12.048;2022-11-18T18:14:14;23.52;;;19.80;;
53642;SDS011;39546;45.534;12.048;2022-11-18T18:20:16;22.40;;;17.65;;
53642;SDS011;39546;45.534;12.048;2022-11-18T18:26:18;22.37;;;17.08;;
53642;SDS011;39546;45.534;12.048;2022-11-18T18:32:20;19.05;;;14.63;;
53642;SDS011;39546;45.534;12.048;2022-11-18T18:38:23;21.37;;;17.73;;
53642;SDS011;39546;45.534;12.048;2022-11-18T18:44:26;21.08;;;15.38;;
53642;SDS011;39546;45.534;12.048;2022-11-18T18:50:48;19.23;;;13.77;;
53642;SDS011;39546;45.534;12.048;2022-11-18T18:56:52;17.25;;;13.07;;
53642;SDS011;39546;45.534;12.048;2022-11-18T19:02:55;19.70;;;12.95;;
53642;SDS011;39546;45.534;12.048;2022-11-18T19:08:59;16.80;;;12.73;;
53642;SDS011;39546;45.534;12.048;2022-11-18T19:15:04;15.75;;;12.13;;
53642;SDS011;39546;45.534;12.048;2022-11-18T19:21:09;17.35;;;11.98;;
53642;SDS011;39546;45.534;12.048;2022-11-18T19:27:12;20.58;;;15.15;;
53642;SDS011;39546;45.534;12.048;2022-11-18T19:33:14;20.92;;;15.73;;
53642;SDS011;39546;45.534;12.048;2022-11-18T19:39:16;16.65;;;13.10;;
53642;SDS011;39546;45.534;12.048;2022-11-18T19:45:17;21.33;;;17.08;;
53642;SDS011;39546;45.534;12.048;2022-11-18T19:51:20;19.52;;;12.80;;
53642;SDS011;39546;45.534;12.048;2022-11-18T19:57:21;18.73;;;13.27;;
53642;SDS011;39546;45.534;12.048;2022-11-18T20:03:26;18.60;;;13.27;;
53642;SDS011;39546;45.534;12.048;2022-11-18T20:09:28;15.05;;;11.30;;
53642;SDS011;39546;45.534;12.048;2022-11-18T20:15:31;20.73;;;14.25;;
53642;SDS011;39546;45.534;12.048;2022-11-18T20:21:33;18.20;;;13.02;;
53642;SDS011;39546;45.534;12.048;2022-11-18T20:27:35;20.17;;;15.18;;
53642;SDS011;39546;45.534;12.048;2022-11-18T20:33:38;25.20;;;16.70;;
53642;SDS011;39546;45.534;12.048;2022-11-18T20:39:41;33.17;;;27.10;;
53642;SDS011;39546;45.534;12.048;2022-11-18T20:45:43;24.58;;;20.48;;
53642;SDS011;39546;45.534;12.048;2022-11-18T20:51:53;24.35;;;19.45;;
53642;SDS011;39546;45.534;12.048;2022-11-18T20:57:55;28.25;;;21.10;;
53642;SDS011;39546;45.534;12.048;2022-11-18T21:03:58;34.38;;;27.92;;
53642;SDS011;39546;45.534;12.048;2022-11-18T21:10:01;35.08;;;26.33;;
53642;SDS011;39546;45.534;12.048;2022-11-18T21:16:05;27.42;;;22.55;;
53642;SDS011;39546;45.534;12.048;2022-11-18T21:22:07;26.17;;;21.67;;
53642;SDS011;39546;45.534;12.048;2022-11-18T21:28:09;24.67;;;19.40;;
53642;SDS011;39546;45.534;12.048;2022-11-18T21:34:14;23.40;;;18.83;;
53642;SDS011;39546;45.534;12.048;2022-11-18T21:40:17;21.65;;;17.60;;
53642;SDS011;39546;45.534;12.048;2022-11-18T21:46:19;24.92;;;19.02;;
53642;SDS011;39546;45.534;12.048;2022-11-18T21:52:21;23.02;;;17.33;;
53642;SDS011;39546;45.534;12.048;2022-11-18T21:58:24;27.33;;;18.65;;
53642;SDS011;39546;45.534;12.048;2022-11-18T22:04:26;27.20;;;20.35;;
53642;SDS011;39546;45.534;12.048;2022-11-18T22:10:47;28.38;;;18.35;;
53642;SDS011;39546;45.534;12.048;2022-11-18T22:16:56;25.25;;;19.98;;
53642;SDS011;39546;45.534;12.048;2022-11-18T22:22:59;28.00;;;22.20;;
53642;SDS011;39546;45.534;12.048;2022-11-18T22:35:11;25.33;;;18.10;;
53642;SDS011;39546;45.534;12.048;2022-11-18T22:47:39;24.10;;;20.23;;
53642;SDS011;39546;45.534;12.048;2022-11-18T22:53:41;22.20;;;17.92;;
53642;SDS011;39546;45.534;12.048;2022-11-18T22:59:43;24.15;;;19.33;;
53642;SDS011;39546;45.534;12.048;2022-11-18T23:05:46;22.95;;;17.30;;
53642;SDS011;39546;45.534;12.048;2022-11-18T23:11:48;22.25;;;16.95;;
53642;SDS011;39546;45.534;12.048;2022-11-18T23:18:09;30.62;;;24.12;;
53642;SDS011;39546;45.534;12.048;2022-11-18T23:24:15;27.58;;;22.73;;
53642;SDS011;39546;45.534;12.048;2022-11-18T23:30:19;20.58;;;17.62;;
53642;SDS011;39546;45.534;12.048;2022-11-18T23:36:22;19.55;;;17.42;;
53642;SDS011;39546;45.534;12.048;2022-11-18T23:42:25;18.48;;;16.45;;
53642;SDS011;39546;45.534;12.048;2022-11-18T23:48:30;22.60;;;20.00;;
53642;SDS011;39546;45.534;12.048;2022-11-18T23:54:37;23.60;;;19.45;;
